Time;durP1;ratioP1;P1;durP2;ratioP2;P2;SDS_P1;SDS_P2;PMS_P1;PMS_P2;Temp;Humidity;BMP_temperature;BMP_pressure;BME280_temperature;BME280_humidity;BME280_pressure;Samples;Min_cycle;Max_cycle;Signal;HPM_P1;HPM_P2
2021/01/17 00:03:34;;;;;;;0.10;0.10;;;;;;;;;;6217389;23;20160;-60
2021/01/17 00:09:48;;;;;;;0.10;0.10;;;;;;;;;;6216814;23;20158;-60
2021/01/17 00:18:35;;;;;;;0.10;0.10;;;;;;;;;;6217276;23;20244;-61
2021/01/17 00:24:23;;;;;;;0.10;0.10;;;;;;;;;;6217171;23;20171;-61
2021/01/17 00:27:03;;;;;;;0.00;0.00;;;;;;;;;;6217469;23;20180;-60
2021/01/17 00:32:33;;;;;;;0.00;0.00;;;;;;;;;;6217153;23;20219;-60
2021/01/17 00:38:04;;;;;;;0.07;0.07;;;;;;;;;;6217110;23;20525;-61
2021/01/17 00:46:39;;;;;;;0.00;0.00;;;;;;;;;;6216980;23;20156;-61
2021/01/17 00:52:32;;;;;;;0.07;0.07;;;;;;;;;;6215868;23;20663;-61
2021/01/17 00:55:05;;;;;;;0.03;0.03;;;;;;;;;;6216282;23;20178;-60
2021/01/17 01:00:35;;;;;;;0.57;0.57;;;;;;;;;;6215378;23;20253;-60
2021/01/17 01:06:05;;;;;;;0.00;0.00;;;;;;;;;;6216942;23;20227;-60
2021/01/17 01:09:03;;;;;;;0.00;0.00;;;;;;;;;;6216982;23;20204;-61
2021/01/17 01:14:33;;;;;;;0.00;0.00;;;;;;;;;;6216691;23;20160;-60
2021/01/17 01:20:07;;;;;;;0.00;0.00;;;;;;;;;;6206356;23;20596;-61
2021/01/17 01:22:33;;;;;;;0.10;0.10;;;;;;;;;;6200435;23;20155;-61
2021/01/17 01:25:00;;;;;;;5.50;0.63;;;;;;;;;;6199200;23;20159;-61
2021/01/17 01:27:27;;;;;;;0.00;0.00;;;;;;;;;;6201466;23;20158;-61
2021/01/17 01:29:54;;;;;;;0.10;0.10;;;;;;;;;;6197932;23;20157;-62
2021/01/17 01:32:22;;;;;;;3.50;3.30;;;;;;;;;;6199505;23;20256;-63
2021/01/17 01:34:48;;;;;;;0.00;0.00;;;;;;;;;;6199569;23;20606;-63
2021/01/17 01:37:15;;;;;;;0.00;0.00;;;;;;;;;;6199670;23;20146;-63
2021/01/17 01:39:43;;;;;;;0.00;0.00;;;;;;;;;;6199060;23;20474;-61
2021/01/17 01:42:10;;;;;;;0.00;0.00;;;;;;;;;;6196411;23;20164;-61
2021/01/17 01:44:37;;;;;;;0.00;0.00;;;;;;;;;;6199912;23;20525;-61
2021/01/17 01:47:07;;;;;;;0.07;0.07;;;;;;;;;;6196740;23;20163;-62
2021/01/17 01:49:35;;;;;;;0.00;0.00;;;;;;;;;;6197638;23;20697;-61
2021/01/17 01:52:02;;;;;;;0.00;0.00;;;;;;;;;;6199954;23;20241;-61
2021/01/17 01:54:31;;;;;;;0.10;0.10;;;;;;;;;;6198756;23;20158;-62
2021/01/17 01:56:57;;;;;;;0.10;0.10;;;;;;;;;;6199752;23;21091;-61
2021/01/17 15:04:56;;;;;;;0.10;0.10;;;;;;;;;;5049753;28;20613;-62
2021/01/17 15:07:23;;;;;;;0.00;0.00;;;;;;;;;;5053029;28;20397;-63
2021/01/17 15:09:49;;;;;;;0.00;0.00;;;;;;;;;;5050328;28;20301;-62
2021/01/17 15:12:16;;;;;;;3.10;0.47;;;;;;;;;;5047375;28;20573;-61
2021/01/17 15:14:43;;;;;;;0.00;0.00;;;;;;;;;;5061509;28;20183;-62
2021/01/17 15:17:14;;;;;;;0.03;0.03;;;;;;;;;;5049551;28;20696;-60
2021/01/17 15:19:41;;;;;;;0.03;0.03;;;;;;;;;;5050290;28;20171;-61
2021/01/17 15:22:08;;;;;;;0.17;0.17;;;;;;;;;;5052236;28;20324;-63
2021/01/17 15:24:34;;;;;;;0.10;0.10;;;;;;;;;;5052160;28;20514;-62
2021/01/17 15:27:01;;;;;;;0.10;0.10;;;;;;;;;;5054194;28;20194;-64
2021/01/17 15:29:27;;;;;;;3.87;1.03;;;;;;;;;;5049183;28;21612;-62
2021/01/17 15:31:54;;;;;;;0.10;0.10;;;;;;;;;;5050372;28;20167;-64
2021/01/17 15:34:21;;;;;;;2.57;0.30;;;;;;;;;;5054920;28;20176;-62
2021/01/17 15:36:47;;;;;;;0.10;0.10;;;;;;;;;;5050720;28;20593;-62
2021/01/17 15:39:14;;;;;;;0.30;0.30;;;;;;;;;;5055143;28;20197;-62
2021/01/17 15:41:41;;;;;;;0.10;0.10;;;;;;;;;;5058891;28;20183;-60
2021/01/17 15:44:07;;;;;;;0.10;0.10;;;;;;;;;;5048174;28;20265;-63
2021/01/17 15:46:38;;;;;;;0.30;0.20;;;;;;;;;;5050061;28;20179;-64
2021/01/17 15:49:05;;;;;;;0.20;0.20;;;;;;;;;;5046403;28;20514;-60
2021/01/17 15:51:33;;;;;;;0.10;0.10;;;;;;;;;;5052272;28;20182;-61
2021/01/17 15:54:00;;;;;;;0.40;0.40;;;;;;;;;;5050776;28;20178;-64
2021/01/17 15:56:27;;;;;;;0.10;0.10;;;;;;;;;;5044097;28;20207;-61
2021/01/17 15:58:53;;;;;;;0.13;0.13;;;;;;;;;;5056740;28;20230;-63
2021/01/17 16:01:26;;;;;;;0.10;0.10;;;;;;;;;;5049331;28;20198;-61
2021/01/17 16:03:53;;;;;;;0.20;0.20;;;;;;;;;;5048168;28;20318;-60
2021/01/17 16:06:20;;;;;;;0.37;0.37;;;;;;;;;;5050941;28;20763;-64
2021/01/17 16:08:46;;;;;;;0.10;0.10;;;;;;;;;;5048061;28;20678;-61
2021/01/17 16:11:14;;;;;;;0.10;0.10;;;;;;;;;;5054260;28;20170;-65
2021/01/17 16:13:41;;;;;;;0.10;0.10;;;;;;;;;;5055149;28;20213;-63
2021/01/17 16:16:08;;;;;;;0.00;0.00;;;;;;;;;;5034216;28;22121;-61
2021/01/17 16:18:35;;;;;;;0.20;0.20;;;;;;;;;;5037331;28;22345;-65
2021/01/17 16:21:01;;;;;;;0.10;0.10;;;;;;;;;;5037359;28;20179;-61
2021/01/17 16:23:29;;;;;;;0.10;0.10;;;;;;;;;;5037607;28;20582;-62
2021/01/17 16:25:56;;;;;;;0.20;0.20;;;;;;;;;;5042040;28;20377;-63
2021/01/17 16:28:23;;;;;;;0.20;0.20;;;;;;;;;;5033686;28;20560;-61
2021/01/17 16:30:54;;;;;;;0.63;0.63;;;;;;;;;;5035290;28;20179;-62
2021/01/17 16:33:21;;;;;;;0.10;0.10;;;;;;;;;;5037656;28;20542;-61
2021/01/17 16:35:47;;;;;;;0.20;0.20;;;;;;;;;;5035128;28;20300;-60
2021/01/17 16:38:14;;;;;;;0.27;0.27;;;;;;;;;;5036942;28;20578;-60
2021/01/17 16:40:41;;;;;;;0.57;0.57;;;;;;;;;;5031129;28;20180;-61
2021/01/17 16:43:08;;;;;;;0.10;0.10;;;;;;;;;;5037396;28;20227;-62
2021/01/17 16:45:34;;;;;;;0.10;0.10;;;;;;;;;;5036333;28;20172;-62
2021/01/17 16:48:01;;;;;;;0.30;0.30;;;;;;;;;;5032249;28;20205;-62
2021/01/17 16:50:28;;;;;;;0.30;0.23;;;;;;;;;;5037241;28;20175;-62
2021/01/17 16:55:58;;;;;;;0.10;0.10;;;;;;;;;;5055458;28;20174;-59
2021/01/17 16:58:25;;;;;;;0.10;0.10;;;;;;;;;;5033727;28;20661;-60
2021/01/17 17:00:52;;;;;;;0.20;0.10;;;;;;;;;;5036768;28;20211;-60
2021/01/17 17:03:18;;;;;;;0.00;0.00;;;;;;;;;;5037576;28;20683;-60
2021/01/17 17:05:45;;;;;;;0.00;0.00;;;;;;;;;;5032873;28;20620;-61
2021/01/17 17:08:13;;;;;;;0.00;0.00;;;;;;;;;;5028395;28;20197;-61
2021/01/17 17:10:40;;;;;;;0.20;0.10;;;;;;;;;;5032363;28;20192;-61
2021/01/17 17:13:07;;;;;;;1.17;0.50;;;;;;;;;;5031822;28;20237;-62
2021/01/17 17:15:33;;;;;;;0.20;0.20;;;;;;;;;;5032883;28;21175;-62
2021/01/17 17:18:01;;;;;;;0.33;0.33;;;;;;;;;;5034996;28;20183;-60
2021/01/17 17:20:28;;;;;;;1.20;0.20;;;;;;;;;;5035076;28;20206;-61
2021/01/17 17:22:55;;;;;;;0.00;0.00;;;;;;;;;;5036068;28;20219;-62
2021/01/17 17:25:21;;;;;;;0.30;0.30;;;;;;;;;;5031174;28;20202;-64
2021/01/17 17:27:48;;;;;;;0.37;0.37;;;;;;;;;;5034994;28;20180;-64
2021/01/17 17:30:15;;;;;;;0.10;0.10;;;;;;;;;;5032218;28;20661;-63
2021/01/17 17:32:43;;;;;;;3.30;0.67;;;;;;;;;;5038756;28;20234;-62
2021/01/17 17:35:10;;;;;;;0.30;0.30;;;;;;;;;;5037622;28;20194;-62
2021/01/17 17:37:38;;;;;;;0.47;0.37;;;;;;;;;;5032069;28;20199;-64
2021/01/17 17:40:06;;;;;;;0.10;0.10;;;;;;;;;;5034303;28;20190;-60
2021/01/17 17:42:33;;;;;;;3.40;0.47;;;;;;;;;;5034288;28;20175;-61
2021/01/17 17:44:59;;;;;;;12.17;1.07;;;;;;;;;;5031490;28;20230;-63
2021/01/17 17:47:27;;;;;;;0.63;0.60;;;;;;;;;;5035007;28;20186;-62
2021/01/17 17:49:54;;;;;;;0.10;0.10;;;;;;;;;;5032663;28;20167;-63
2021/01/17 17:52:23;;;;;;;1.13;0.47;;;;;;;;;;5036998;28;20187;-60
2021/01/17 17:54:49;;;;;;;0.30;0.30;;;;;;;;;;5033561;28;20180;-63
2021/01/17 17:57:16;;;;;;;0.10;0.10;;;;;;;;;;5034027;28;20187;-64
2021/01/17 17:59:42;;;;;;;0.10;0.10;;;;;;;;;;5036076;28;20179;-61
2021/01/17 18:02:10;;;;;;;0.10;0.10;;;;;;;;;;5030972;28;20186;-63
2021/01/17 18:04:36;;;;;;;0.97;0.20;;;;;;;;;;5032946;28;20239;-61
2021/01/17 18:07:03;;;;;;;0.10;0.10;;;;;;;;;;5035500;28;20214;-61
2021/01/17 18:09:30;;;;;;;0.33;0.23;;;;;;;;;;5035110;28;20179;-60
2021/01/17 18:11:57;;;;;;;0.10;0.10;;;;;;;;;;5033905;28;20226;-61
2021/01/17 18:14:23;;;;;;;0.40;0.40;;;;;;;;;;5031271;28;20180;-61
2021/01/17 18:16:54;;;;;;;0.73;0.73;;;;;;;;;;5033191;28;20180;-61
2021/01/17 18:19:21;;;;;;;0.20;0.20;;;;;;;;;;5032134;28;20282;-61
2021/01/17 18:21:47;;;;;;;0.20;0.20;;;;;;;;;;5030945;28;20179;-61
2021/01/17 18:24:14;;;;;;;0.10;0.10;;;;;;;;;;5037807;28;20208;-61
2021/01/17 18:26:41;;;;;;;0.10;0.10;;;;;;;;;;5031228;28;20213;-60
2021/01/17 18:29:08;;;;;;;0.63;0.63;;;;;;;;;;5033314;28;20191;-64
2021/01/17 18:31:35;;;;;;;0.10;0.10;;;;;;;;;;5036845;28;20183;-62
2021/01/17 18:34:02;;;;;;;0.10;0.10;;;;;;;;;;5029947;28;20526;-61
2021/01/17 18:36:29;;;;;;;0.20;0.20;;;;;;;;;;5039959;28;20195;-61
2021/01/17 18:38:56;;;;;;;0.37;0.20;;;;;;;;;;5034050;28;20214;-61
2021/01/17 18:41:23;;;;;;;0.10;0.10;;;;;;;;;;5029623;28;20524;-63
2021/01/17 18:43:50;;;;;;;0.20;0.20;;;;;;;;;;5035705;28;20215;-61
2021/01/17 18:46:16;;;;;;;0.10;0.10;;;;;;;;;;5034001;28;20534;-60
2021/01/17 18:48:43;;;;;;;4.80;1.40;;;;;;;;;;5032850;28;20751;-61
2021/01/17 18:51:14;;;;;;;0.10;0.10;;;;;;;;;;5034791;28;20738;-60
2021/01/17 18:53:40;;;;;;;2.13;0.53;;;;;;;;;;5034322;28;20194;-61
2021/01/17 18:59:39;;;;;;;0.43;0.30;;;;;;;;;;5073422;28;20206;-59
2021/01/17 19:02:09;;;;;;;0.00;0.00;;;;;;;;;;5068663;28;20190;-59
2021/01/17 19:04:36;;;;;;;0.00;0.00;;;;;;;;;;5029981;28;20234;-60
2021/01/17 19:19:08;;;;;;;0.00;0.00;;;;;;;;;;5059420;28;20177;-59
2021/01/17 19:24:39;;;;;;;0.00;0.00;;;;;;;;;;5058763;28;20221;-60
2021/01/17 19:30:10;;;;;;;0.00;0.00;;;;;;;;;;5059093;28;20240;-60
2021/01/17 19:35:39;;;;;;;0.20;0.00;;;;;;;;;;5058493;28;20186;-59
2021/01/17 19:41:09;;;;;;;3.80;0.60;;;;;;;;;;5058430;28;20212;-60
2021/01/17 19:46:42;;;;;;;0.00;0.00;;;;;;;;;;5058549;28;20185;-60
2021/01/17 19:52:12;;;;;;;0.00;0.00;;;;;;;;;;5062301;28;20204;-60
2021/01/17 19:57:42;;;;;;;0.00;0.00;;;;;;;;;;5061518;28;20177;-60
2021/01/17 20:03:13;;;;;;;0.63;0.20;;;;;;;;;;5061144;28;20264;-60
2021/01/17 20:08:42;;;;;;;0.00;0.00;;;;;;;;;;5060819;28;20182;-61
2021/01/17 20:14:13;;;;;;;0.00;0.00;;;;;;;;;;5061988;28;20233;-60
2021/01/17 20:19:43;;;;;;;0.00;0.00;;;;;;;;;;5059868;28;20177;-60
2021/01/17 20:25:13;;;;;;;0.00;0.00;;;;;;;;;;5059797;28;20291;-59
2021/01/17 20:30:42;;;;;;;0.00;0.00;;;;;;;;;;5058850;28;20273;-59
2021/01/17 20:36:26;;;;;;;0.00;0.00;;;;;;;;;;5058944;28;20184;-60
2021/01/17 20:41:56;;;;;;;0.00;0.00;;;;;;;;;;5059207;28;20287;-59
2021/01/17 20:47:26;;;;;;;0.00;0.00;;;;;;;;;;5060131;28;20202;-59
2021/01/17 20:52:56;;;;;;;0.20;0.20;;;;;;;;;;5059936;28;20182;-60
2021/01/17 20:58:26;;;;;;;0.00;0.00;;;;;;;;;;5058857;28;20227;-60
2021/01/17 21:03:56;;;;;;;0.37;0.23;;;;;;;;;;5056525;28;20271;-60
2021/01/17 21:09:26;;;;;;;0.00;0.00;;;;;;;;;;5059462;28;20202;-60
2021/01/17 21:14:56;;;;;;;0.00;0.00;;;;;;;;;;5059108;28;20179;-60
2021/01/17 21:20:26;;;;;;;0.00;0.00;;;;;;;;;;5058622;28;20230;-59
2021/01/17 21:25:56;;;;;;;0.00;0.00;;;;;;;;;;5057710;28;20178;-60
2021/01/17 21:31:27;;;;;;;0.00;0.00;;;;;;;;;;5058286;28;20188;-60
2021/01/17 21:36:58;;;;;;;0.00;0.00;;;;;;;;;;5014850;23;20246;-63
2021/01/17 21:39:24;;;;;;;0.00;0.00;;;;;;;;;;4986016;28;20265;-63
2021/01/17 21:41:51;;;;;;;0.00;0.00;;;;;;;;;;4990887;28;20192;-63
2021/01/17 21:44:18;;;;;;;0.00;0.00;;;;;;;;;;4992044;28;20727;-63
2021/01/17 21:46:45;;;;;;;0.10;0.10;;;;;;;;;;4993107;28;20329;-62
2021/01/17 21:49:12;;;;;;;0.00;0.00;;;;;;;;;;4992187;28;20210;-63
2021/01/17 21:51:39;;;;;;;0.00;0.00;;;;;;;;;;4986853;28;20192;-63
2021/01/17 21:54:05;;;;;;;0.00;0.00;;;;;;;;;;4988625;28;20201;-63
2021/01/17 21:56:32;;;;;;;0.00;0.00;;;;;;;;;;4990152;28;20598;-63
2021/01/17 21:58:59;;;;;;;0.00;0.00;;;;;;;;;;4991346;28;20195;-63
2021/01/17 22:01:25;;;;;;;0.00;0.00;;;;;;;;;;4995127;28;20238;-63
2021/01/17 22:03:52;;;;;;;0.00;0.00;;;;;;;;;;4991490;28;20963;-63
2021/01/17 22:06:19;;;;;;;0.00;0.00;;;;;;;;;;4991505;28;20278;-63
2021/01/17 22:08:46;;;;;;;0.00;0.00;;;;;;;;;;4994878;28;20195;-63
2021/01/17 22:11:18;;;;;;;0.10;0.10;;;;;;;;;;4993733;28;20190;-63
2021/01/17 22:13:44;;;;;;;0.20;0.20;;;;;;;;;;4994169;28;20261;-63
2021/01/17 22:16:15;;;;;;;0.00;0.00;;;;;;;;;;4994347;28;20187;-64
2021/01/17 22:18:41;;;;;;;0.00;0.00;;;;;;;;;;4994622;28;20872;-63
2021/01/17 22:21:08;;;;;;;0.00;0.00;;;;;;;;;;4996516;28;20664;-64
2021/01/17 22:23:34;;;;;;;2.83;1.10;;;;;;;;;;4989784;28;20305;-62
2021/01/17 22:26:02;;;;;;;0.10;0.03;;;;;;;;;;4994413;28;20303;-63
2021/01/17 22:28:29;;;;;;;0.00;0.00;;;;;;;;;;4991108;28;20186;-63
2021/01/17 22:30:58;;;;;;;0.00;0.00;;;;;;;;;;4988540;28;20201;-63
2021/01/17 22:33:26;;;;;;;0.00;0.00;;;;;;;;;;4989083;28;20286;-63
2021/01/17 22:35:53;;;;;;;0.00;0.00;;;;;;;;;;4997330;28;20321;-63
2021/01/17 22:38:21;;;;;;;0.00;0.00;;;;;;;;;;4996082;28;20199;-63
2021/01/17 22:40:47;;;;;;;0.00;0.00;;;;;;;;;;4993852;28;20268;-62
2021/01/17 22:43:14;;;;;;;0.00;0.00;;;;;;;;;;4992542;28;20210;-62
2021/01/17 22:45:41;;;;;;;0.10;0.07;;;;;;;;;;4990487;28;20187;-62
2021/01/17 22:48:07;;;;;;;0.00;0.00;;;;;;;;;;4997493;28;20188;-61
2021/01/17 22:50:34;;;;;;;0.00;0.00;;;;;;;;;;4995941;28;20223;-62
2021/01/17 22:53:00;;;;;;;0.00;0.00;;;;;;;;;;4995743;28;20186;-62
2021/01/17 22:55:27;;;;;;;2.20;2.17;;;;;;;;;;5003904;28;20664;-61
2021/01/17 22:57:55;;;;;;;0.00;0.00;;;;;;;;;;4993226;28;20758;-62
2021/01/17 23:00:21;;;;;;;0.00;0.00;;;;;;;;;;4999189;28;20462;-62
2021/01/17 23:02:48;;;;;;;0.00;0.00;;;;;;;;;;4988250;28;20329;-62
2021/01/17 23:05:16;;;;;;;0.03;0.03;;;;;;;;;;4990784;28;20271;-62
2021/01/17 23:07:43;;;;;;;0.00;0.00;;;;;;;;;;4991344;28;20255;-62
2021/01/17 23:10:10;;;;;;;1.17;1.17;;;;;;;;;;4990640;28;20192;-62
2021/01/17 23:12:37;;;;;;;0.03;0.03;;;;;;;;;;4986660;28;20346;-62
2021/01/17 23:15:04;;;;;;;0.00;0.00;;;;;;;;;;4985418;28;20202;-62
2021/01/17 23:17:30;;;;;;;0.00;0.00;;;;;;;;;;4985820;28;20288;-62
2021/01/17 23:19:58;;;;;;;1.33;1.33;;;;;;;;;;4986831;28;20791;-62
2021/01/17 23:22:29;;;;;;;5.30;5.10;;;;;;;;;;4987792;28;20202;-62
2021/01/17 23:24:56;;;;;;;0.00;0.00;;;;;;;;;;4989958;28;21375;-61
2021/01/17 23:27:22;;;;;;;0.67;0.67;;;;;;;;;;4993796;28;20186;-61
2021/01/17 23:29:51;;;;;;;0.00;0.00;;;;;;;;;;4994904;28;20193;-62
2021/01/17 23:32:17;;;;;;;0.00;0.00;;;;;;;;;;4996377;28;20964;-62
2021/01/17 23:34:44;;;;;;;0.00;0.00;;;;;;;;;;4996052;28;20204;-63
2021/01/17 23:37:10;;;;;;;0.10;0.10;;;;;;;;;;4990244;28;20239;-62
2021/01/17 23:39:37;;;;;;;0.00;0.00;;;;;;;;;;5001290;28;20196;-62
2021/01/17 23:42:03;;;;;;;0.00;0.00;;;;;;;;;;4994248;28;20220;-63
2021/01/17 23:44:30;;;;;;;0.03;0.03;;;;;;;;;;4994575;28;20278;-63
2021/01/17 23:46:57;;;;;;;0.00;0.00;;;;;;;;;;4993404;28;20858;-63
2021/01/17 23:49:23;;;;;;;0.00;0.00;;;;;;;;;;4992259;28;20817;-63
2021/01/17 23:51:51;;;;;;;0.00;0.00;;;;;;;;;;4994044;28;20191;-63
2021/01/17 23:54:18;;;;;;;0.00;0.00;;;;;;;;;;4990387;28;20233;-62
2021/01/17 23:56:46;;;;;;;0.00;0.00;;;;;;;;;;4988931;28;21604;-62
2021/01/17 23:59:12;;;;;;;0.00;0.00;;;;;;;;;;4993554;28;20188;-68
